Time;durP1;ratioP1;P1;durP2;ratioP2;P2;SDS_P1;SDS_P2;PMS_P1;PMS_P2;Temp;Humidity;BMP_temperature;BMP_pressure;BME280_temperature;BME280_humidity;BME280_pressure;Samples;Min_cycle;Max_cycle;Signal;HPM_P1;HPM_P2
2023/04/19 00:01:05;;;;;;;4.20;1.93;;;;;;;10.07;49.18;100211.23;1446077;90;22258;-80
2023/04/19 00:03:31;;;;;;;4.50;1.60;;;;;;;10.02;49.31;100209.06;1448419;90;21459;-80
2023/04/19 00:05:59;;;;;;;8.33;2.00;;;;;;;9.97;49.63;100207.84;1429756;90;21408;-79
2023/04/19 00:08:26;;;;;;;6.80;2.00;;;;;;;9.89;49.70;100200.15;1449634;90;21474;-79
2023/04/19 00:10:52;;;;;;;7.37;2.10;;;;;;;9.79;50.28;100198.07;1450580;89;21392;-79
2023/04/19 00:13:18;;;;;;;2.87;1.70;;;;;;;9.68;50.53;100198.27;1445765;90;22415;-79
2023/04/19 00:15:44;;;;;;;4.90;2.73;;;;;;;9.57;51.00;100201.93;1455296;90;21489;-78
2023/04/19 00:18:11;;;;;;;4.70;2.50;;;;;;;9.53;51.15;100197.11;1443897;90;21544;-79
2023/04/19 00:20:38;;;;;;;8.07;2.90;;;;;;;9.49;50.94;100198.72;1448567;90;22214;-78
2023/04/19 00:23:04;;;;;;;3.90;1.90;;;;;;;9.46;51.21;100191.55;1446963;90;21371;-79
2023/04/19 00:25:33;;;;;;;4.33;2.73;;;;;;;9.43;51.81;100194.48;1440734;90;21482;-78
2023/04/19 00:27:59;;;;;;;12.70;3.63;;;;;;;9.39;51.44;100184.70;1444971;90;21466;-79
2023/04/19 00:30:25;;;;;;;4.57;2.57;;;;;;;9.37;52.52;100189.30;1439841;90;21522;-78
2023/04/19 00:32:52;;;;;;;16.27;2.27;;;;;;;9.35;52.26;100189.95;1449872;90;22331;-78
2023/04/19 00:35:21;;;;;;;4.67;2.60;;;;;;;9.34;52.31;100190.91;1440776;90;21437;-78
2023/04/19 00:37:47;;;;;;;5.33;2.50;;;;;;;9.28;53.78;100184.89;1447543;90;21401;-77
2023/04/19 00:40:14;;;;;;;6.40;3.00;;;;;;;9.23;54.30;100184.00;1436190;89;21880;-77
2023/04/19 00:42:40;;;;;;;6.00;2.40;;;;;;;9.19;55.09;100173.88;1441239;90;21415;-78
2023/04/19 00:45:08;;;;;;;10.43;2.80;;;;;;;9.17;54.64;100175.83;1444144;90;22465;-78
2023/04/19 00:47:35;;;;;;;5.37;2.50;;;;;;;9.14;55.86;100178.76;1445372;90;21356;-77
2023/04/19 00:50:06;;;;;;;15.87;4.63;;;;;;;9.09;55.91;100176.57;1432270;90;21378;-77
2023/04/19 00:52:33;;;;;;;7.33;2.60;;;;;;;9.06;55.97;100172.87;1442714;90;21371;-77
2023/04/19 00:55:00;;;;;;;4.80;2.83;;;;;;;9.03;56.83;100170.06;1446068;90;21394;-77
2023/04/19 00:57:28;;;;;;;6.60;3.10;;;;;;;9.02;58.20;100172.83;1434641;90;21659;-77
2023/04/19 00:59:56;;;;;;;4.80;3.50;;;;;;;9.00;58.36;100162.89;1433108;90;21386;-77
2023/04/19 01:02:23;;;;;;;8.23;2.87;;;;;;;9.00;58.70;100158.93;1452150;89;21378;-77
2023/04/19 01:04:49;;;;;;;6.17;2.60;;;;;;;8.98;59.23;100160.91;1443971;90;21534;-79
2023/04/19 01:07:16;;;;;;;8.63;3.00;;;;;;;8.94;59.34;100153.73;1439714;90;21454;-79
2023/04/19 01:09:45;;;;;;;7.03;3.23;;;;;;;8.92;58.90;100159.67;1447955;89;22347;-79
2023/04/19 01:12:11;;;;;;;6.93;3.13;;;;;;;8.89;59.45;100154.67;1442121;89;22383;-79
2023/04/19 01:14:39;;;;;;;6.67;3.03;;;;;;;8.87;60.70;100148.70;1449871;90;21489;-78
2023/04/19 01:17:07;;;;;;;5.30;3.43;;;;;;;8.86;59.41;100144.41;1447717;90;22221;-77
2023/04/19 01:19:33;;;;;;;8.40;3.50;;;;;;;8.86;59.96;100143.09;1448693;89;22376;-78
2023/04/19 01:22:01;;;;;;;7.73;3.77;;;;;;;8.87;60.28;100142.59;1446862;90;21385;-79
2023/04/19 01:24:28;;;;;;;8.10;2.97;;;;;;;8.87;61.44;100135.51;1443926;90;22310;-79
2023/04/19 01:26:55;;;;;;;5.43;3.10;;;;;;;8.89;62.42;100136.20;1442349;90;21423;-79
2023/04/19 01:29:21;;;;;;;4.50;3.10;;;;;;;8.91;62.66;100128.95;1438243;89;21393;-78
2023/04/19 01:31:52;;;;;;;4.17;2.80;;;;;;;8.93;62.65;100128.83;1449468;90;22286;-78
2023/04/19 01:34:16;;;;;;;8.20;3.67;;;;;;;8.93;63.40;100128.33;1440772;90;22279;-77
2023/04/19 01:36:42;;;;;;;8.53;4.07;;;;;;;8.93;64.74;100132.29;1449113;90;21415;-77
2023/04/19 01:39:09;;;;;;;7.37;4.40;;;;;;;8.95;63.08;100132.98;1437237;90;21474;-78
2023/04/19 01:41:36;;;;;;;9.13;3.20;;;;;;;8.93;65.69;100134.92;1446319;90;21407;-77
2023/04/19 01:44:02;;;;;;;5.07;3.40;;;;;;;8.93;65.57;100128.33;1445522;90;21562;-79
2023/04/19 01:46:28;;;;;;;6.03;4.17;;;;;;;8.92;66.33;100125.36;1449518;90;21550;-79
2023/04/19 01:48:55;;;;;;;10.67;3.70;;;;;;;8.95;65.69;100125.56;1447225;90;22309;-78
2023/04/19 01:51:21;;;;;;;6.40;3.20;;;;;;;8.97;65.42;100129.69;1441335;89;21311;-78
2023/04/19 01:53:52;;;;;;;8.07;3.23;;;;;;;8.98;66.58;100124.78;1448150;90;21385;-78
2023/04/19 01:56:19;;;;;;;;;;;;;;;8.98;66.30;100124.78;1451414;90;21384;-78
2023/04/19 01:58:46;;;;;;;6.30;4.20;;;;;;;8.99;66.63;100120.33;1440353;89;20323;-79
2023/04/19 02:01:13;;;;;;;5.33;4.07;;;;;;;8.97;65.80;100118.31;1448830;89;21312;-78
2023/04/19 02:03:39;;;;;;;28.80;4.80;;;;;;;8.94;66.42;100115.95;1441881;89;21511;-79
2023/04/19 02:06:07;;;;;;;10.90;4.17;;;;;;;8.91;66.73;100115.76;1445616;89;22280;-78
2023/04/19 02:08:33;;;;;;;8.43;4.63;;;;;;;8.88;66.72;100111.27;1447634;89;21377;-78
2023/04/19 02:10:59;;;;;;;6.97;3.47;;;;;;;8.80;67.98;100114.61;1428389;90;22457;-78
2023/04/19 02:13:25;;;;;;;8.70;4.37;;;;;;;8.75;67.72;100108.47;1428566;90;21742;-78
2023/04/19 02:15:51;;;;;;;6.97;3.97;;;;;;;8.69;68.41;100113.46;1446830;90;21386;-78
2023/04/19 02:18:17;;;;;;;6.67;4.23;;;;;;;8.68;68.23;100114.45;1447589;89;22420;-79
2023/04/19 02:20:44;;;;;;;8.77;5.27;;;;;;;8.66;69.29;100115.06;1443711;90;21453;-79
2023/04/19 02:23:10;;;;;;;10.83;4.83;;;;;;;8.65;69.35;100110.77;1450336;90;21438;-78
2023/04/19 02:25:36;;;;;;;7.37;4.60;;;;;;;8.61;69.39;100100.18;1454912;90;21526;-79
2023/04/19 02:28:02;;;;;;;8.03;4.87;;;;;;;8.60;70.03;100101.95;1451508;89;21327;-78
2023/04/19 02:30:28;;;;;;;12.17;5.33;;;;;;;8.55;71.55;100102.41;1453765;89;21515;-78
2023/04/19 02:32:54;;;;;;;9.20;5.63;;;;;;;8.54;72.40;100106.00;1451422;90;22391;-78
2023/04/19 02:35:20;;;;;;;10.23;6.33;;;;;;;8.53;73.25;100099.06;1444737;90;21407;-78
2023/04/19 02:37:46;;;;;;;8.57;5.70;;;;;;;8.54;73.61;100098.08;1426185;90;21407;-78
2023/04/19 02:40:12;;;;;;;11.07;6.00;;;;;;;8.53;74.15;100094.28;1434584;90;21400;-78
2023/04/19 02:42:38;;;;;;;10.73;6.83;;;;;;;8.52;74.56;100100.05;1446147;89;21364;-78
2023/04/19 02:45:07;;;;;;;8.13;5.53;;;;;;;8.54;75.56;100096.77;1447463;89;21370;-78
2023/04/19 02:47:33;;;;;;;13.47;6.43;;;;;;;8.55;75.64;100099.77;1441343;89;21318;-78
2023/04/19 02:49:59;;;;;;;10.90;6.47;;;;;;;8.53;75.04;100096.43;1442932;90;21482;-77
2023/04/19 02:52:26;;;;;;;9.63;5.30;;;;;;;8.51;76.55;100092.27;1442749;90;22392;-78
2023/04/19 02:54:52;;;;;;;8.87;5.80;;;;;;;8.52;76.97;100102.69;1444252;90;21437;-78
2023/04/19 02:57:19;;;;;;;12.83;7.23;;;;;;;8.54;76.53;100095.45;1443674;89;21430;-80
2023/04/19 02:59:45;;;;;;;10.63;6.63;;;;;;;8.55;75.10;100091.03;1443598;90;21349;-79
2023/04/19 03:02:11;;;;;;;13.27;6.00;;;;;;;8.53;75.81;100090.33;1453460;89;21379;-79
2023/04/19 03:04:37;;;;;;;11.13;7.47;;;;;;;8.50;74.96;100094.08;1446853;89;21356;-79
2023/04/19 03:07:03;;;;;;;10.37;6.63;;;;;;;8.43;75.77;100087.73;1448096;89;22295;-79
2023/04/19 03:09:30;;;;;;;13.27;7.13;;;;;;;8.39;75.06;100092.09;1442030;89;21445;-79
2023/04/19 03:11:56;;;;;;;13.73;6.33;;;;;;;8.35;74.99;100083.61;1455378;90;22206;-79
2023/04/19 03:14:22;;;;;;;15.33;6.80;;;;;;;8.32;75.17;100081.26;1424949;90;21407;-79
2023/04/19 03:16:48;;;;;;;12.40;7.13;;;;;;;8.29;76.31;100082.86;1445948;89;21400;-79
2023/04/19 03:19:14;;;;;;;19.57;7.13;;;;;;;8.27;77.08;100080.84;1448805;90;21327;-79
2023/04/19 03:21:41;;;;;;;15.03;8.93;;;;;;;8.25;76.27;100077.50;1447741;89;22280;-79
2023/04/19 03:24:07;;;;;;;13.53;7.23;;;;;;;8.24;76.85;100071.90;1448701;90;21489;-79
2023/04/19 03:26:34;;;;;;;15.20;7.97;;;;;;;8.19;76.76;100071.48;1440366;90;21385;-79
2023/04/19 03:29:00;;;;;;;16.20;8.27;;;;;;;8.16;78.01;100067.81;1442549;90;21578;-77
2023/04/19 03:31:26;;;;;;;12.93;7.57;;;;;;;8.12;78.91;100065.46;1453232;90;21356;-78
2023/04/19 03:33:52;;;;;;;18.80;7.57;;;;;;;8.09;79.96;100065.74;1444155;90;21377;-77
2023/04/19 03:36:19;;;;;;;11.97;6.90;;;;;;;8.08;79.03;100060.11;1448491;90;22555;-78
2023/04/19 03:38:47;;;;;;;13.07;7.03;;;;;;;8.08;79.62;100056.16;1446041;89;22427;-78
2023/04/19 03:41:23;;;;;;;12.10;6.90;;;;;;;8.09;79.28;100054.37;1441747;89;21356;-78
2023/04/19 03:43:49;;;;;;;13.03;7.80;;;;;;;8.08;79.26;100057.96;1440697;90;21459;-78
2023/04/19 03:46:15;;;;;;;19.00;9.90;;;;;;;8.06;80.17;100059.44;1431569;90;21535;-78
2023/04/19 03:48:42;;;;;;;13.13;7.53;;;;;;;8.03;80.87;100054.45;1449013;90;21401;-78
2023/04/19 03:51:08;;;;;;;14.90;9.67;;;;;;;7.96;83.50;100058.59;1450364;89;22355;-79
2023/04/19 03:53:36;;;;;;;10.90;8.20;;;;;;;7.92;83.50;100058.55;1442591;90;21511;-78
2023/04/19 03:56:02;;;;;;;12.73;7.77;;;;;;;7.89;85.40;100060.14;1456444;90;21523;-79
2023/04/19 03:58:29;;;;;;;19.23;10.00;;;;;;;7.85;86.44;100053.47;1447845;89;21422;-79
2023/04/19 04:00:55;;;;;;;13.53;8.90;;;;;;;7.87;86.87;100059.44;1438474;89;22242;-80
2023/04/19 04:03:21;;;;;;;14.90;8.17;;;;;;;7.87;88.63;100054.17;1442230;89;21522;-80
2023/04/19 04:05:47;;;;;;;17.17;9.13;;;;;;;7.88;88.55;100056.68;1445485;89;21334;-82
2023/04/19 04:08:13;;;;;;;17.13;9.90;;;;;;;7.94;90.03;100058.39;1429561;90;21312;-79
2023/04/19 04:10:40;;;;;;;17.27;10.17;;;;;;;7.97;90.72;100059.42;1447263;89;21493;-80
2023/04/19 04:13:06;;;;;;;13.30;8.00;;;;;;;8.03;90.24;100054.45;1447724;89;21459;-79
2023/04/19 04:15:32;;;;;;;19.57;8.70;;;;;;;8.11;90.75;100053.27;1434880;90;21437;-80
2023/04/19 04:17:58;;;;;;;20.17;11.30;;;;;;;8.19;89.69;100051.71;1453840;89;21408;-79
2023/04/19 04:20:24;;;;;;;16.00;10.53;;;;;;;8.28;89.54;100056.12;1447745;89;22296;-79
2023/04/19 04:22:51;;;;;;;17.57;9.87;;;;;;;8.33;89.32;100052.59;1442919;89;21360;-79
2023/04/19 04:25:18;;;;;;;16.00;10.33;;;;;;;8.40;88.91;100056.36;1443807;90;21507;-78
2023/04/19 04:27:44;;;;;;;15.00;9.23;;;;;;;8.48;89.42;100055.14;1442893;90;22331;-79
2023/04/19 04:30:11;;;;;;;18.30;9.93;;;;;;;8.57;89.00;100054.30;1449759;89;21520;-79
2023/04/19 04:32:37;;;;;;;16.77;10.67;;;;;;;8.67;89.36;100052.94;1447037;90;22362;-79
2023/04/19 04:35:05;;;;;;;14.93;9.73;;;;;;;8.76;89.46;100060.48;1439979;90;21562;-79
2023/04/19 04:37:35;;;;;;;18.53;10.37;;;;;;;8.87;88.91;100054.19;1445602;89;21319;-79
2023/04/19 04:40:07;;;;;;;14.58;10.05;;;;;;;8.95;90.04;100056.44;1445813;89;22178;-80
2023/04/19 04:42:34;;;;;;;15.73;9.30;;;;;;;9.07;89.52;100054.44;1456618;89;21386;-79
2023/04/19 04:45:00;;;;;;;21.90;12.20;;;;;;;9.19;88.54;100053.25;1446608;89;21547;-79
2023/04/19 04:47:31;;;;;;;21.97;10.47;;;;;;;9.33;88.01;100054.56;1446168;89;21437;-77
2023/04/19 04:49:59;;;;;;;18.37;10.20;;;;;;;9.43;88.21;100051.35;1437210;89;21297;-79
2023/04/19 04:52:26;;;;;;;20.27;11.60;;;;;;;9.59;87.82;100059.12;1436724;90;22325;-77
2023/04/19 04:54:52;;;;;;;16.80;9.73;;;;;;;9.76;87.19;100059.62;1444068;89;21450;-77
2023/04/19 04:57:18;;;;;;;18.27;12.23;;;;;;;9.89;86.19;100057.90;1440522;90;21377;-80
2023/04/19 04:59:46;;;;;;;16.63;9.53;;;;;;;10.07;85.32;100056.55;1451710;89;21614;-78
2023/04/19 05:02:14;;;;;;;16.13;10.20;;;;;;;10.22;84.93;100060.33;1443074;90;21379;-79
2023/04/19 05:04:40;;;;;;;20.10;10.37;;;;;;;10.33;83.74;100056.64;1443981;90;22272;-79
2023/04/19 05:07:06;;;;;;;14.80;10.30;;;;;;;10.38;83.11;100058.30;1447240;90;21459;-80
2023/04/19 05:09:32;;;;;;;16.27;10.00;;;;;;;10.43;83.04;100059.17;1447869;90;21445;-79
2023/04/19 05:11:59;;;;;;;14.53;9.03;;;;;;;10.53;82.76;100062.53;1442504;89;22295;-79
2023/04/19 05:14:25;;;;;;;17.77;11.70;;;;;;;10.63;81.90;100063.27;1451861;90;21431;-79
2023/04/19 05:16:51;;;;;;;18.07;10.60;;;;;;;10.72;81.59;100061.49;1429538;90;21473;-79
2023/04/19 05:19:17;;;;;;;15.93;9.23;;;;;;;10.79;80.54;100056.74;1442605;89;21520;-78
2023/04/19 05:21:43;;;;;;;15.03;11.30;;;;;;;10.91;80.21;100056.47;1445829;90;21415;-79
2023/04/19 05:24:09;;;;;;;17.23;10.40;;;;;;;10.95;79.81;100058.63;1446424;89;21615;-80
2023/04/19 05:26:36;;;;;;;14.67;10.00;;;;;;;11.11;79.70;100056.55;1452916;90;22945;-79
2023/04/19 05:29:02;;;;;;;17.90;10.00;;;;;;;11.09;78.18;100059.02;1445493;89;21962;-79
2023/04/19 05:31:28;;;;;;;16.33;10.70;;;;;;;11.18;78.25;100058.88;1441360;90;21564;-79
2023/04/19 05:33:54;;;;;;;12.17;9.03;;;;;;;11.26;78.26;100051.45;1444962;90;22258;-78
2023/04/19 05:36:20;;;;;;;14.80;9.87;;;;;;;11.42;77.29;100055.95;1427349;90;21499;-78
2023/04/19 05:38:46;;;;;;;19.43;10.60;;;;;;;11.44;76.79;100052.66;1444033;89;21474;-78
2023/04/19 05:41:12;;;;;;;15.50;10.73;;;;;;;11.53;76.65;100056.98;1431337;90;22450;-80
2023/04/19 05:43:38;;;;;;;21.33;10.27;;;;;;;11.59;76.20;100057.64;1453065;90;21393;-77
2023/04/19 05:46:05;;;;;;;17.77;10.77;;;;;;;11.64;75.95;100055.34;1437629;90;21459;-77
2023/04/19 05:48:31;;;;;;;12.07;9.00;;;;;;;11.94;75.72;100055.75;1438298;90;21342;-77
2023/04/19 05:50:58;;;;;;;21.60;10.80;;;;;;;12.14;74.31;100058.88;1443139;90;21479;-76
2023/04/19 05:53:24;;;;;;;15.17;11.03;;;;;;;12.34;73.85;100042.11;1448684;90;21408;-76
2023/04/19 05:55:51;;;;;;;16.80;9.07;;;;;;;12.50;72.43;100044.73;1435209;90;21600;-77
2023/04/19 05:58:18;;;;;;;15.53;8.80;;;;;;;12.54;72.09;100047.37;1447852;89;22280;-79
2023/04/19 06:00:45;;;;;;;13.20;8.57;;;;;;;12.56;70.44;100044.05;1425257;90;21504;-79
2023/04/19 06:03:11;;;;;;;18.13;9.03;;;;;;;12.54;69.83;100048.70;1445289;90;21415;-79
2023/04/19 06:05:39;;;;;;;18.13;9.63;;;;;;;12.42;69.77;100046.08;1443745;89;22479;-79
2023/04/19 06:08:06;;;;;;;14.67;10.77;;;;;;;12.35;70.33;100045.11;1442953;89;21953;-79
2023/04/19 06:10:32;;;;;;;15.70;8.87;;;;;;;12.44;70.19;100048.58;1441294;89;21504;-80
2023/04/19 06:12:58;;;;;;;13.60;9.93;;;;;;;12.25;70.47;100051.08;1443697;90;21444;-79
2023/04/19 06:15:24;;;;;;;12.93;9.90;;;;;;;12.45;71.04;100048.39;1414078;90;21400;-79
2023/04/19 06:17:51;;;;;;;14.53;10.17;;;;;;;12.46;70.25;100041.25;1450067;90;21383;-79
2023/04/19 06:20:17;;;;;;;32.40;12.37;;;;;;;12.48;70.34;100041.41;1441728;90;21423;-78
2023/04/19 06:22:45;;;;;;;18.67;10.50;;;;;;;12.37;69.81;100037.78;1444128;89;21593;-79
2023/04/19 06:25:11;;;;;;;16.67;10.43;;;;;;;12.36;70.01;100040.95;1527712;89;21209;-79
2023/04/19 06:27:37;;;;;;;16.87;10.63;;;;;;;12.56;69.81;100041.41;1372847;90;21201;-78
2023/04/19 06:30:05;;;;;;;16.73;9.63;;;;;;;12.69;69.10;100037.37;1372733;90;21368;-79
2023/04/19 06:32:31;;;;;;;14.23;9.73;;;;;;;12.82;68.31;100032.36;1394396;90;21445;-79
2023/04/19 06:34:57;;;;;;;18.97;10.70;;;;;;;12.96;68.31;100038.79;1441837;90;22242;-79
2023/04/19 06:37:23;;;;;;;11.17;8.07;;;;;;;13.03;68.25;100041.92;1445567;90;21392;-79
2023/04/19 06:39:49;;;;;;;19.10;11.77;;;;;;;13.20;68.12;100045.81;1448884;89;21430;-79
2023/04/19 06:42:18;;;;;;;13.57;8.63;;;;;;;13.25;66.95;100032.84;1451354;89;21468;-79
2023/04/19 06:44:43;;;;;;;13.20;8.33;;;;;;;13.22;65.97;100041.16;1444615;89;21992;-79
2023/04/19 06:47:09;;;;;;;20.57;9.87;;;;;;;13.26;66.02;100045.14;1438791;89;21304;-80
2023/04/19 06:49:37;;;;;;;14.83;9.90;;;;;;;13.26;65.10;100043.34;1433905;90;22317;-79
2023/04/19 06:52:04;;;;;;;14.97;9.90;;;;;;;13.48;65.22;100040.87;1451050;89;22428;-79
2023/04/19 06:54:30;;;;;;;21.77;9.77;;;;;;;13.56;64.39;100036.02;1446253;89;21400;-81
2023/04/19 06:56:56;;;;;;;13.17;8.53;;;;;;;13.84;65.26;100044.27;1423678;90;21946;-79
2023/04/19 06:59:24;;;;;;;15.77;11.53;;;;;;;13.89;61.99;100041.41;1449074;89;21445;-80
2023/04/19 07:01:50;;;;;;;125.43;98.37;;;;;;;14.02;60.79;100042.66;1445151;90;21482;-80
2023/04/19 07:04:17;;;;;;;19.57;11.00;;;;;;;14.32;61.57;100037.70;1434163;90;21298;-80
2023/04/19 07:06:43;;;;;;;11.83;8.13;;;;;;;14.50;61.45;100035.19;1446530;90;21803;-81
2023/04/19 07:09:09;;;;;;;12.93;7.57;;;;;;;14.67;61.22;100035.37;1427243;90;21459;-80
2023/04/19 07:11:35;;;;;;;10.33;7.50;;;;;;;14.65;59.23;100036.90;1444089;90;21364;-81
2023/04/19 07:14:01;;;;;;;21.20;10.17;;;;;;;14.66;60.19;100037.72;1446724;89;21341;-80
2023/04/19 07:16:28;;;;;;;11.97;7.70;;;;;;;14.60;59.97;100041.94;1438566;89;21438;-79
2023/04/19 07:18:54;;;;;;;12.03;9.67;;;;;;;14.54;61.34;100032.54;1448680;90;21496;-79
2023/04/19 07:21:24;;;;;;;14.83;7.87;;;;;;;14.54;61.53;100033.87;1429415;90;21611;-78
2023/04/19 07:23:50;;;;;;;9.83;7.53;;;;;;;14.69;59.15;100036.53;1440065;90;21474;-79
2023/04/19 07:26:16;;;;;;;12.77;7.20;;;;;;;14.74;57.80;100035.48;1425482;90;22010;-79
2023/04/19 07:28:42;;;;;;;15.43;8.20;;;;;;;14.56;56.82;100041.17;1430629;90;21401;-78
2023/04/19 07:31:15;;;;;;;8.97;6.97;;;;;;;14.55;57.79;100044.32;1442553;90;22199;-77
2023/04/19 07:33:42;;;;;;;11.97;7.47;;;;;;;14.40;56.62;100038.95;1442881;90;22339;-79
2023/04/19 07:36:09;;;;;;;13.87;8.63;;;;;;;14.37;56.32;100043.31;1445306;90;21407;-78
2023/04/19 07:38:36;;;;;;;10.43;7.17;;;;;;;14.48;54.81;100040.72;1447155;90;21371;-78
2023/04/19 07:41:04;;;;;;;12.90;7.70;;;;;;;14.61;55.67;100046.76;1443860;89;21401;-78
2023/04/19 07:43:30;;;;;;;9.17;6.70;;;;;;;14.78;55.80;100046.90;1448999;89;21512;-79
2023/04/19 07:45:56;;;;;;;16.10;7.73;;;;;;;14.79;53.31;100043.24;1447643;89;21650;-76
2023/04/19 07:48:24;;;;;;;14.67;5.73;;;;;;;15.11;55.06;100036.68;1443981;90;21407;-79
2023/04/19 07:50:50;;;;;;;10.03;6.03;;;;;;;15.41;52.43;100041.11;1445681;90;21560;-79
2023/04/19 07:53:19;;;;;;;15.93;7.10;;;;;;;15.20;52.04;100038.73;1446068;90;21357;-79
2023/04/19 07:55:45;;;;;;;8.90;6.10;;;;;;;15.33;52.82;100045.56;1433949;90;21451;-78
2023/04/19 07:58:11;;;;;;;9.80;5.80;;;;;;;15.51;51.91;100040.31;1439158;90;21326;-79
2023/04/19 08:00:37;;;;;;;10.33;5.97;;;;;;;15.66;50.96;100039.74;1443101;89;21727;-78
2023/04/19 08:03:04;;;;;;;10.83;6.07;;;;;;;15.93;50.70;100042.69;1445792;90;21415;-79
2023/04/19 08:05:30;;;;;;;12.37;5.73;;;;;;;15.98;49.94;100033.59;1447233;89;21350;-76
2023/04/19 08:07:56;;;;;;;13.07;5.80;;;;;;;15.90;47.93;100032.39;1443746;90;21584;-76
2023/04/19 08:10:23;;;;;;;11.17;4.97;;;;;;;16.10;51.09;100038.72;1446438;89;21371;-76
2023/04/19 08:12:51;;;;;;;8.17;4.77;;;;;;;16.22;48.74;100035.84;1444317;89;22362;-79
2023/04/19 08:15:17;;;;;;;9.63;5.47;;;;;;;16.39;48.62;100027.02;1437005;89;21429;-79
2023/04/19 08:17:43;;;;;;;12.40;5.93;;;;;;;16.44;47.46;100033.95;1428756;90;21408;-79
2023/04/19 08:20:20;;;;;;;11.00;5.43;;;;;;;16.04;45.79;100027.48;1439043;90;21400;-79
2023/04/19 08:22:47;;;;;;;11.60;6.03;;;;;;;15.73;44.70;100029.98;1527572;89;22163;-79
2023/04/19 08:25:13;;;;;;;10.43;5.77;;;;;;;15.70;47.58;100030.87;1372683;89;21457;-78
2023/04/19 08:27:39;;;;;;;14.67;5.60;;;;;;;15.59;48.53;100028.16;1373253;89;21328;-78
2023/04/19 08:30:08;;;;;;;7.33;4.67;;;;;;;15.71;48.44;100029.88;1445980;89;21384;-79
2023/04/19 08:32:34;;;;;;;7.60;3.90;;;;;;;15.85;47.25;100028.95;1392261;89;21534;-78
2023/04/19 08:35:00;;;;;;;7.00;4.10;;;;;;;15.96;44.60;100028.95;1447376;89;22278;-79
2023/04/19 08:37:27;;;;;;;12.40;4.73;;;;;;;15.97;44.74;100027.95;1443587;89;22451;-78
2023/04/19 08:39:53;;;;;;;9.77;4.67;;;;;;;16.08;45.84;100031.41;1428418;90;21591;-79
2023/04/19 08:42:19;;;;;;;10.70;4.40;;;;;;;16.11;44.52;100025.71;1444482;90;21522;-79
2023/04/19 08:44:46;;;;;;;8.33;5.03;;;;;;;16.15;45.15;100032.30;1427565;90;21460;-79
2023/04/19 08:47:15;;;;;;;8.73;5.03;;;;;;;16.09;44.75;100037.09;1445327;90;21582;-79
2023/04/19 08:50:00;;;;;;;7.57;5.90;;;;;;;16.54;45.99;100022.91;1444611;89;22770;-79
2023/04/19 08:52:28;;;;;;;10.83;5.43;;;;;;;16.81;46.08;100019.91;1368877;90;21387;-79
2023/04/19 08:54:56;;;;;;;12.77;6.20;;;;;;;17.14;45.72;100022.71;1370308;89;21342;-79
2023/04/19 08:57:22;;;;;;;9.07;4.67;;;;;;;17.28;43.85;100020.09;1371707;89;22237;-79
2023/04/19 08:59:54;;;;;;;8.30;4.70;;;;;;;17.47;43.93;100014.50;1424911;89;21423;-79
2023/04/19 09:02:16;;;;;;;9.50;5.17;;;;;;;17.20;42.33;100020.27;1430707;90;21822;-80
2023/04/19 09:04:42;;;;;;;10.57;5.40;;;;;;;17.38;43.24;100015.20;1453815;89;22273;-79
2023/04/19 09:07:22;;;;;;;8.67;5.47;;;;;;;17.52;43.16;100014.20;1441858;90;21319;-79
2023/04/19 09:10:08;;;;;;;9.08;4.87;;;;;;;17.67;42.28;100015.35;1452437;89;21371;-80
2023/04/19 09:12:36;;;;;;;7.00;5.05;;;;;;;17.94;40.54;100011.38;1446313;90;22482;-81
2023/04/19 09:15:07;;;;;;;11.90;4.63;;;;;;;18.13;42.30;100010.56;1447038;89;21379;-83
2023/04/19 09:17:36;;;;;;;12.35;5.00;;;;;;;18.33;42.53;100005.19;1448757;89;22384;-82
2023/04/19 09:20:05;;;;;;;5.10;4.08;;;;;;;18.79;42.93;100003.43;1445887;90;21489;-82
2023/04/19 09:22:33;;;;;;;10.88;5.55;;;;;;;18.92;40.18;99996.16;1448316;90;21386;-81
2023/04/19 09:25:00;;;;;;;12.55;5.03;;;;;;;18.25;40.26;100000.86;1446200;90;21520;-82
2023/04/19 09:27:33;;;;;;;14.05;5.50;;;;;;;17.80;42.04;100010.55;1451052;89;21530;-81
2023/04/19 09:30:02;;;;;;;11.75;5.72;;;;;;;17.68;42.34;100006.80;1445502;89;22495;-82
2023/04/19 09:32:45;;;;;;;16.73;6.10;;;;;;;17.56;43.69;100005.25;1442898;90;21355;-83
2023/04/19 09:35:11;;;;;;;21.87;5.63;;;;;;;17.18;43.82;100006.30;1449357;89;21415;-81
2023/04/19 09:37:40;;;;;;;7.67;5.47;;;;;;;17.24;43.45;100004.16;1431115;90;21297;-82
2023/04/19 09:40:25;;;;;;;11.10;5.77;;;;;;;17.12;42.96;100002.58;1406358;90;21488;-82
2023/04/19 09:42:51;;;;;;;10.70;6.23;;;;;;;17.38;44.39;100001.83;1441865;90;21429;-82
2023/04/19 09:45:18;;;;;;;9.37;5.70;;;;;;;17.57;44.62;100001.02;1444483;89;21577;-82
2023/04/19 09:47:45;;;;;;;16.93;6.23;;;;;;;17.39;44.31;99998.11;1430553;90;21444;-82
2023/04/19 09:50:12;;;;;;;15.33;6.13;;;;;;;17.29;43.41;99998.52;1444007;89;21393;-82
2023/04/19 09:52:38;;;;;;;9.33;5.23;;;;;;;17.32;44.54;100007.95;1444716;90;22656;-82
2023/04/19 09:55:06;;;;;;;12.07;6.47;;;;;;;16.99;44.78;100007.34;1445829;90;21304;-82
2023/04/19 09:57:33;;;;;;;7.67;5.80;;;;;;;17.19;45.23;100003.41;1449382;90;21784;-83
2023/04/19 10:00:04;;;;;;;13.03;5.93;;;;;;;16.92;45.04;100005.17;1447988;89;21466;-81
2023/04/19 10:02:31;;;;;;;9.73;5.77;;;;;;;16.87;45.29;99998.25;1441600;89;21585;-82
2023/04/19 10:04:59;;;;;;;9.67;5.80;;;;;;;17.03;46.16;99997.92;1447134;90;22589;-81
2023/04/19 10:07:27;;;;;;;10.80;5.73;;;;;;;17.23;44.19;100001.14;1447340;89;21452;-83
2023/04/19 10:09:56;;;;;;;9.07;6.00;;;;;;;17.12;44.76;99999.90;1447329;89;21423;-82
2023/04/19 10:12:25;;;;;;;10.90;6.43;;;;;;;17.09;44.66;99994.44;1444613;90;22369;-82
2023/04/19 10:14:58;;;;;;;11.27;6.30;;;;;;;17.08;44.64;99994.63;1448726;90;21371;-82
2023/04/19 10:17:25;;;;;;;11.90;5.90;;;;;;;17.44;44.96;99984.95;1450408;89;21475;-82
2023/04/19 10:20:07;;;;;;;9.87;6.50;;;;;;;17.82;44.81;99988.42;1426799;90;21422;-82
2023/04/19 10:22:33;;;;;;;9.90;4.90;;;;;;;17.99;42.92;99992.33;1447923;89;22280;-82
2023/04/19 10:25:15;;;;;;;7.00;5.33;;;;;;;17.99;42.57;99987.50;1448802;90;21469;-82
2023/04/19 10:27:45;;;;;;;7.28;5.53;;;;;;;17.78;41.92;99984.48;1449308;89;21349;-81
2023/04/19 10:30:25;;;;;;;9.83;6.40;;;;;;;17.62;42.96;99980.87;1443691;89;21923;-82
2023/04/19 10:32:56;;;;;;;11.53;4.90;;;;;;;17.67;43.53;99986.44;1451548;89;22207;-81
2023/04/19 10:35:28;;;;;;;13.72;5.85;;;;;;;17.82;40.98;99981.73;1444119;89;21422;-83
2023/04/19 10:38:08;;;;;;;8.08;5.55;;;;;;;17.98;40.58;99975.97;1443236;89;22328;-82
2023/04/19 10:41:02;;;;;;;13.05;6.25;;;;;;;18.13;41.23;99974.93;1432086;90;21527;-84
2023/04/19 10:44:00;;;;;;;7.65;5.92;;;;;;;17.80;41.01;99976.56;1493536;87;21377;-82
2023/04/19 10:46:32;;;;;;;6.47;5.30;;;;;;;17.74;41.38;99980.56;1499852;87;21822;-83
2023/04/19 10:49:02;;;;;;;8.63;5.60;;;;;;;17.78;41.49;99972.45;1494313;87;21554;-82
2023/04/19 10:51:43;;;;;;;11.57;6.17;;;;;;;18.18;42.73;99973.27;1488397;87;21296;-82
2023/04/19 10:54:35;;;;;;;8.53;5.05;;;;;;;18.43;42.39;99973.41;1490998;87;21527;-81
2023/04/19 10:57:07;;;;;;;12.63;5.87;;;;;;;18.39;39.69;99966.02;1493531;87;22206;-82
2023/04/19 10:59:44;;;;;;;7.35;5.12;;;;;;;18.61;41.41;99958.52;1493386;87;21333;-82
2023/04/19 11:02:26;;;;;;;7.17;4.65;;;;;;;18.59;38.74;99953.39;1493608;87;21422;-81
2023/04/19 11:04:59;;;;;;;6.17;4.65;;;;;;;18.60;38.83;99951.52;1489515;87;21421;-82
2023/04/19 11:07:26;;;;;;;11.18;5.10;;;;;;;18.82;39.67;99960.95;1493380;87;21348;-82
2023/04/19 11:09:52;;;;;;;8.18;5.28;;;;;;;18.70;38.04;99958.09;1490782;87;22064;-82
2023/04/19 11:12:20;;;;;;;9.95;5.05;;;;;;;18.92;39.68;99949.24;1495931;87;22329;-83
2023/04/19 11:14:52;;;;;;;11.57;5.45;;;;;;;19.00;38.99;99954.07;1480528;87;21501;-82
2023/04/19 11:17:26;;;;;;;7.97;5.60;;;;;;;19.24;40.35;99953.30;1490678;87;21656;-82
2023/04/19 11:20:00;;;;;;;8.65;4.72;;;;;;;19.22;37.97;99951.38;1498031;87;22255;-82
2023/04/19 11:22:38;;;;;;;11.10;6.15;;;;;;;19.17;39.25;99947.16;1490621;87;21863;-82
2023/04/19 11:25:12;;;;;;;7.90;5.20;;;;;;;18.78;39.98;99949.00;1492140;87;21420;-82
2023/04/19 11:27:42;;;;;;;6.65;5.10;;;;;;;18.99;40.37;99953.75;1489443;87;21455;-81